Mehama, Oregon
Current Conditions -  °F | °C
As of 4:56 PM on Wednesday 26 Nov 2014 (Local Time) from KSLE Reporting Station
Clear Clear  
Wind Chill: 57°   Ceiling: Unl
Heat Index: 57°   Visibility: 10mi
Dew Point: 49°   Wind: 7mph
Humidity: 74%   Direction: 150°SSE
Pressure: 30.04"   Gusts: NA
Location:  44.79°N, 122.62°W
Report Text: KSLE 270056Z 15006KT 10SM CLR 14/09 A3004 RMK AO2 SLP173 T01390094
Loading
Personal Weather Stations






























Interactive Weather Map New forecast layout! Learn more

10-Day Weather Forecast

Advertisements
Track Severe Weather on mobile